Time;durP1;ratioP1;P1;durP2;ratioP2;P2;SDS_P1;SDS_P2;PMS_P1;PMS_P2;Temp;Humidity;BMP_temperature;BMP_pressure;BME280_temperature;BME280_humidity;BME280_pressure;Samples;Min_cycle;Max_cycle;Signal;HPM_P1;HPM_P2
2022/11/07 00:01:15;;;;;;;20.60;12.13;;;10.30;99.90;;;;;;5096262;28;20062;-59
2022/11/07 00:03:41;;;;;;;14.45;10.38;;;10.40;99.90;;;;;;5065289;28;20131;-59
2022/11/07 00:06:07;;;;;;;18.23;9.88;;;10.40;99.90;;;;;;5059405;28;20123;-60
2022/11/07 00:08:33;;;;;;;14.73;9.52;;;10.40;99.90;;;;;;5094272;28;20044;-61
2022/11/07 00:11:00;;;;;;;11.75;8.90;;;10.40;99.90;;;;;;5084658;28;20413;-59
2022/11/07 00:13:26;;;;;;;16.30;10.27;;;10.40;99.90;;;;;;5066769;28;20131;-60
2022/11/07 00:16:06;;;;;;;19.45;11.18;;;10.50;99.90;;;;;;5079143;28;20127;-60
2022/11/07 00:18:33;;;;;;;15.65;10.50;;;10.50;99.90;;;;;;5095365;28;20059;-59
2022/11/07 00:21:03;;;;;;;15.88;10.50;;;10.50;99.90;;;;;;5095734;28;20040;-60
2022/11/07 00:23:29;;;;;;;14.23;10.02;;;10.50;99.90;;;;;;5093058;28;20035;-58
2022/11/07 00:26:04;;;;;;;16.38;10.10;;;10.50;99.90;;;;;;5094891;28;20478;-59
2022/11/07 00:28:36;;;;;;;16.77;10.15;;;10.60;99.90;;;;;;5062793;28;20070;-60
2022/11/07 00:31:02;;;;;;;12.40;9.27;;;10.60;99.90;;;;;;5096788;28;20390;-59
2022/11/07 00:33:28;;;;;;;16.30;10.60;;;10.60;99.90;;;;;;5097718;28;20051;-59
2022/11/07 00:35:54;;;;;;;16.38;9.45;;;10.60;99.90;;;;;;5079163;28;20047;-59
2022/11/07 00:38:20;;;;;;;17.77;10.63;;;10.60;99.90;;;;;;5076965;28;20431;-59
2022/11/07 00:40:56;;;;;;;14.65;10.75;;;10.60;99.90;;;;;;5076262;28;20109;-58
2022/11/07 00:43:23;;;;;;;15.13;8.57;;;10.60;99.90;;;;;;5084627;28;20053;-59
2022/11/07 00:45:49;;;;;;;15.82;9.60;;;10.50;99.90;;;;;;5059636;28;20058;-59
2022/11/07 00:48:15;;;;;;;14.70;9.60;;;10.60;99.90;;;;;;5095621;28;20043;-59
2022/11/07 00:50:40;;;;;;;19.02;9.40;;;10.60;99.90;;;;;;5094358;28;20684;-60
2022/11/07 00:53:06;;;;;;;12.32;9.52;;;10.60;99.90;;;;;;5096064;28;20052;-61
2022/11/07 00:55:32;;;;;;;18.73;9.30;;;10.60;99.90;;;;;;5095449;28;20048;-60
2022/11/07 00:57:58;;;;;;;17.30;9.68;;;10.50;99.90;;;;;;5084710;28;20138;-59
2022/11/07 01:00:24;;;;;;;19.95;10.60;;;10.60;99.90;;;;;;5093582;28;20055;-60
2022/11/07 01:05:35;;;;;;;19.35;10.02;;;10.60;99.90;;;;;;5095061;28;20109;-60
2022/11/07 01:08:01;;;;;;;19.42;9.77;;;10.60;99.90;;;;;;5094017;28;20052;-59
2022/11/07 01:10:27;;;;;;;23.10;10.82;;;10.60;99.90;;;;;;5078498;28;20176;-59
2022/11/07 01:12:53;;;;;;;16.52;7.75;;;10.60;99.90;;;;;;5094409;28;20121;-61
2022/11/07 01:15:19;;;;;;;16.73;9.50;;;10.60;99.90;;;;;;5075156;28;20052;-60
2022/11/07 01:17:44;;;;;;;17.48;10.15;;;10.60;99.90;;;;;;5095141;28;20054;-59
2022/11/07 01:20:11;;;;;;;13.65;7.47;;;10.70;99.90;;;;;;5074889;28;20061;-60
2022/11/07 01:22:36;;;;;;;16.58;7.55;;;10.70;99.90;;;;;;5080778;28;20963;-59
2022/11/07 01:25:02;;;;;;;19.30;8.25;;;10.70;99.90;;;;;;5095115;28;20100;-60
2022/11/07 01:27:28;;;;;;;18.25;7.78;;;10.70;99.90;;;;;;5094330;28;20536;-59
2022/11/07 01:29:54;;;;;;;19.48;7.40;;;10.70;99.90;;;;;;5074305;28;20036;-59
2022/11/07 01:32:20;;;;;;;19.95;9.68;;;10.70;99.90;;;;;;5093955;28;20102;-59
2022/11/07 01:34:46;;;;;;;14.70;9.35;;;10.70;99.90;;;;;;5066509;28;20047;-59
2022/11/07 01:37:12;;;;;;;22.08;9.48;;;10.70;99.90;;;;;;5082200;28;20090;-59
2022/11/07 01:39:38;;;;;;;14.75;7.57;;;10.80;99.90;;;;;;5074415;28;20106;-60
2022/11/07 01:42:04;;;;;;;18.48;9.48;;;10.70;99.90;;;;;;5095864;28;20127;-60
2022/11/07 01:44:39;;;;;;;19.15;8.38;;;10.70;99.90;;;;;;5060776;28;20142;-60
2022/11/07 01:47:07;;;;;;;17.70;7.97;;;10.70;99.90;;;;;;5092604;28;20039;-60
2022/11/07 01:49:40;;;;;;;26.40;9.57;;;10.70;99.90;;;;;;5093520;28;20087;-61
2022/11/07 01:52:23;;;;;;;21.25;8.95;;;10.70;99.90;;;;;;5077947;28;20058;-59
2022/11/07 01:55:18;;;;;;;17.88;8.45;;;10.70;99.90;;;;;;5094090;28;20425;-60
2022/11/07 01:58:03;;;;;;;20.45;8.27;;;10.70;99.90;;;;;;5074016;28;20058;-60
2022/11/07 02:00:30;;;;;;;16.92;7.80;;;10.70;99.90;;;;;;5078996;28;20040;-60
2022/11/07 02:03:09;;;;;;;17.13;7.00;;;10.70;99.90;;;;;;5076349;28;20122;-61
2022/11/07 02:05:43;;;;;;;17.50;7.40;;;10.70;99.90;;;;;;5093339;28;20036;-60
2022/11/07 02:08:11;;;;;;;13.98;6.95;;;10.70;99.90;;;;;;5093074;28;20490;-59
2022/11/07 02:10:39;;;;;;;16.13;6.80;;;10.80;99.90;;;;;;5061551;28;20131;-61
2022/11/07 02:13:06;;;;;;;25.27;7.75;;;10.80;99.90;;;;;;5074162;28;20139;-59
2022/11/07 02:15:33;;;;;;;13.63;6.70;;;10.80;99.90;;;;;;5085062;28;20060;-59
2022/11/07 02:18:00;;;;;;;17.05;6.82;;;10.70;99.90;;;;;;5093220;28;20043;-60
2022/11/07 02:20:26;;;;;;;15.88;6.07;;;10.70;99.90;;;;;;5074418;28;20132;-59
2022/11/07 02:22:59;;;;;;;18.10;6.78;;;10.70;99.90;;;;;;5084431;28;20508;-60
2022/11/07 02:25:25;;;;;;;17.00;6.15;;;10.70;99.90;;;;;;5082176;28;20429;-60
2022/11/07 02:27:58;;;;;;;14.85;6.60;;;10.70;99.90;;;;;;5090665;28;20046;-60
2022/11/07 02:30:27;;;;;;;15.30;5.80;;;10.70;99.90;;;;;;5094071;28;20055;-61
2022/11/07 02:32:53;;;;;;;16.90;5.78;;;10.70;99.90;;;;;;5094343;28;20125;-61
2022/11/07 02:35:38;;;;;;;15.00;6.20;;;10.70;99.90;;;;;;5092283;28;20044;-59
2022/11/07 02:38:21;;;;;;;16.58;5.65;;;10.70;99.90;;;;;;5075874;28;20079;-60
2022/11/07 02:41:10;;;;;;;14.50;5.68;;;10.70;99.90;;;;;;5094854;28;20044;-59
2022/11/07 02:43:40;;;;;;;18.02;5.35;;;10.70;99.90;;;;;;5058107;28;20501;-59
2022/11/07 02:46:09;;;;;;;15.07;5.00;;;10.70;99.90;;;;;;5076376;28;20052;-61
2022/11/07 02:48:47;;;;;;;9.23;5.30;;;10.70;99.90;;;;;;5078670;28;20083;-59
2022/11/07 02:51:14;;;;;;;14.75;5.03;;;10.70;99.90;;;;;;5091084;28;20056;-60
2022/11/07 02:53:40;;;;;;;10.60;4.90;;;10.70;99.90;;;;;;5092164;28;20105;-59
2022/11/07 02:56:06;;;;;;;12.80;5.15;;;10.80;99.90;;;;;;5077148;28;20047;-60
2022/11/07 02:58:32;;;;;;;12.23;6.25;;;10.70;99.90;;;;;;5090256;28;20395;-59
2022/11/07 03:01:05;;;;;;;13.93;5.50;;;10.70;99.90;;;;;;5089454;28;20050;-60
2022/11/07 03:03:37;;;;;;;12.60;5.88;;;10.80;99.90;;;;;;5060712;28;20102;-60
2022/11/07 03:06:04;;;;;;;13.37;4.93;;;10.70;99.90;;;;;;5079131;28;20112;-61
2022/11/07 03:08:30;;;;;;;15.43;4.97;;;10.80;99.90;;;;;;5078032;28;20297;-59
2022/11/07 03:10:56;;;;;;;17.95;6.70;;;10.80;99.90;;;;;;5091486;28;20421;-67
2022/11/07 03:13:22;;;;;;;13.93;4.60;;;10.70;99.90;;;;;;5094390;28;20042;-66
2022/11/07 03:15:49;;;;;;;9.57;3.70;;;10.70;99.90;;;;;;5078210;28;20052;-66
2022/11/07 03:18:15;;;;;;;8.25;3.80;;;10.70;99.90;;;;;;5098328;28;20050;-66
2022/11/07 03:20:41;;;;;;;10.63;4.30;;;10.70;99.90;;;;;;5069752;28;20489;-64
2022/11/07 03:23:07;;;;;;;13.57;4.35;;;10.80;99.90;;;;;;5096265;28;20054;-64
2022/11/07 03:25:32;;;;;;;12.60;4.85;;;10.70;99.90;;;;;;5096205;28;20528;-65
2022/11/07 03:27:58;;;;;;;14.73;5.13;;;10.70;99.90;;;;;;5096125;28;20048;-65
2022/11/07 03:30:24;;;;;;;13.60;4.72;;;10.70;99.90;;;;;;5079169;28;20051;-64
2022/11/07 03:32:51;;;;;;;16.95;4.78;;;10.80;99.90;;;;;;5095967;28;20131;-64
2022/11/07 03:35:19;;;;;;;19.10;5.45;;;10.80;99.90;;;;;;5078526;28;20047;-64
2022/11/07 03:37:45;;;;;;;19.60;4.68;;;10.80;99.90;;;;;;5096470;28;20050;-65
2022/11/07 03:40:12;;;;;;;19.65;4.95;;;10.80;99.90;;;;;;5095299;28;20039;-64
2022/11/07 03:42:38;;;;;;;18.73;5.28;;;10.80;99.90;;;;;;5083015;28;20044;-64
2022/11/07 03:45:06;;;;;;;11.32;4.95;;;10.80;99.90;;;;;;5097999;28;20110;-63
2022/11/07 03:47:35;;;;;;;18.58;5.38;;;10.80;99.90;;;;;;5099422;28;20097;-63
2022/11/07 03:50:01;;;;;;;14.85;4.45;;;10.80;99.90;;;;;;5080809;28;20074;-65
2022/11/07 03:52:27;;;;;;;11.98;4.50;;;10.70;99.90;;;;;;5097799;28;20452;-65
2022/11/07 03:54:53;;;;;;;16.05;4.38;;;10.70;99.90;;;;;;5095354;28;20063;-64
2022/11/07 03:57:19;;;;;;;18.40;5.65;;;10.70;99.90;;;;;;5095278;28;20188;-65
2022/11/07 03:59:45;;;;;;;12.20;4.55;;;10.70;99.90;;;;;;5078373;28;20100;-64
2022/11/07 04:02:10;;;;;;;15.20;5.45;;;10.70;99.90;;;;;;5095737;28;20407;-66
2022/11/07 04:04:36;;;;;;;17.67;6.68;;;10.70;99.90;;;;;;5068373;28;20059;-65
2022/11/07 04:07:02;;;;;;;11.32;3.90;;;10.70;99.90;;;;;;5077772;28;20689;-64
2022/11/07 04:09:28;;;;;;;16.75;4.43;;;10.70;99.90;;;;;;5096160;28;20051;-65
2022/11/07 04:17:22;;;;;;;14.13;4.78;;;10.70;99.90;;;;;;5083144;28;20093;-65
2022/11/07 04:19:51;;;;;;;15.63;4.22;;;10.60;99.90;;;;;;5062979;28;20051;-65
2022/11/07 04:22:17;;;;;;;19.08;4.55;;;10.60;99.90;;;;;;5096106;28;20397;-64
2022/11/07 04:24:43;;;;;;;16.23;4.50;;;10.60;99.90;;;;;;5093909;28;20119;-65
2022/11/07 04:29:55;;;;;;;16.08;4.35;;;10.60;99.90;;;;;;5094590;28;20155;-65
2022/11/07 04:32:23;;;;;;;17.10;4.80;;;10.60;99.90;;;;;;5077630;28;20482;-65
2022/11/07 04:34:51;;;;;;;14.70;5.40;;;10.60;99.90;;;;;;5095787;28;20040;-64
2022/11/07 04:37:18;;;;;;;14.00;5.30;;;10.50;99.90;;;;;;5076626;28;20091;-65
2022/11/07 04:39:44;;;;;;;19.67;5.43;;;10.50;99.90;;;;;;5078039;28;20054;-65
2022/11/07 04:42:10;;;;;;;18.60;7.07;;;10.50;99.90;;;;;;5095283;28;20044;-65
2022/11/07 04:44:35;;;;;;;17.20;5.88;;;10.60;99.90;;;;;;5078547;28;20051;-66
2022/11/07 04:47:01;;;;;;;18.23;5.20;;;10.60;99.90;;;;;;5093609;28;20046;-65
2022/11/07 04:49:27;;;;;;;14.13;5.80;;;10.60;99.90;;;;;;5097979;28;20122;-65
2022/11/07 04:51:56;;;;;;;18.55;5.18;;;10.60;99.90;;;;;;5093264;28;20132;-66
2022/11/07 04:54:22;;;;;;;20.30;6.28;;;10.60;99.90;;;;;;5088274;28;20040;-64
2022/11/07 04:56:48;;;;;;;23.35;5.82;;;10.60;99.90;;;;;;5094652;28;20043;-66
2022/11/07 04:59:13;;;;;;;16.38;6.30;;;10.60;99.90;;;;;;5097205;28;20063;-65
2022/11/07 05:01:39;;;;;;;19.98;6.28;;;10.60;99.90;;;;;;5097164;28;20054;-65
2022/11/07 05:04:05;;;;;;;21.30;7.10;;;10.60;99.90;;;;;;5097166;28;20090;-65
2022/11/07 05:06:34;;;;;;;16.77;5.75;;;10.70;99.90;;;;;;5096828;28;20051;-64
2022/11/07 05:09:00;;;;;;;21.70;7.60;;;10.70;99.90;;;;;;5081354;28;20664;-65
2022/11/07 05:11:26;;;;;;;24.00;6.88;;;10.70;99.90;;;;;;5089023;28;20131;-66
2022/11/07 05:13:52;;;;;;;16.27;5.55;;;10.70;99.90;;;;;;5096379;28;20036;-65
2022/11/07 05:16:18;;;;;;;19.73;6.22;;;10.70;99.90;;;;;;5086186;28;20044;-65
2022/11/07 05:18:44;;;;;;;15.60;6.40;;;10.70;99.90;;;;;;5096196;28;20059;-65
2022/11/07 05:21:10;;;;;;;15.75;6.30;;;10.60;99.90;;;;;;5087551;28;20044;-63
2022/11/07 05:23:36;;;;;;;18.63;7.22;;;10.60;99.90;;;;;;5082638;28;20047;-66
2022/11/07 05:26:02;;;;;;;18.23;8.05;;;10.60;99.90;;;;;;5094679;28;21115;-66
2022/11/07 05:28:29;;;;;;;22.02;9.48;;;10.60;99.90;;;;;;5094520;28;20047;-66
2022/11/07 05:31:00;;;;;;;17.70;7.53;;;10.60;99.90;;;;;;5074904;28;20039;-66
2022/11/07 05:33:26;;;;;;;25.15;9.93;;;10.60;99.90;;;;;;5093471;28;20047;-66
2022/11/07 05:35:52;;;;;;;18.33;7.90;;;10.50;99.90;;;;;;5093503;28;20457;-66
2022/11/07 05:38:18;;;;;;;19.42;8.75;;;10.50;99.90;;;;;;5078285;28;20039;-66
2022/11/07 05:40:44;;;;;;;20.20;8.75;;;10.50;99.90;;;;;;5051426;28;20051;-65
2022/11/07 05:43:12;;;;;;;21.05;8.60;;;10.50;99.90;;;;;;5092307;28;20925;-66
2022/11/07 05:45:39;;;;;;;23.02;9.55;;;10.50;99.90;;;;;;5089385;28;20078;-65
2022/11/07 05:48:11;;;;;;;19.52;8.38;;;10.40;99.90;;;;;;5092063;28;20394;-66
2022/11/07 05:50:37;;;;;;;23.08;6.85;;;10.40;99.90;;;;;;5091709;28;20051;-66
2022/11/07 05:53:04;;;;;;;17.05;6.18;;;10.40;99.90;;;;;;5057277;28;20044;-65
2022/11/07 05:55:30;;;;;;;17.05;7.05;;;10.40;99.90;;;;;;5094914;28;20130;-65
2022/11/07 05:57:56;;;;;;;21.48;8.27;;;10.50;99.90;;;;;;5077036;28;20040;-66
2022/11/07 06:00:22;;;;;;;16.20;6.90;;;10.50;99.90;;;;;;5092463;28;20038;-64
2022/11/07 06:02:55;;;;;;;25.02;10.88;;;10.50;99.90;;;;;;5092994;28;20189;-66
2022/11/07 06:05:22;;;;;;;19.95;8.82;;;10.50;99.90;;;;;;5090463;28;20518;-64
2022/11/07 06:07:48;;;;;;;21.25;8.73;;;10.60;99.90;;;;;;5095081;28;20165;-66
2022/11/07 06:10:13;;;;;;;22.25;9.18;;;10.50;99.90;;;;;;5096358;28;20115;-65
2022/11/07 06:12:39;;;;;;;24.45;9.60;;;10.60;99.90;;;;;;5074206;28;20126;-64
2022/11/07 06:15:05;;;;;;;29.63;9.63;;;10.50;99.90;;;;;;5090745;28;20144;-66
2022/11/07 06:17:31;;;;;;;20.63;10.50;;;10.50;99.90;;;;;;5073299;28;20043;-66
2022/11/07 06:19:58;;;;;;;20.85;9.38;;;10.50;99.90;;;;;;5074158;28;20050;-63
2022/11/07 06:22:24;;;;;;;20.60;9.88;;;10.50;99.90;;;;;;5065067;28;21576;-65
2022/11/07 06:24:50;;;;;;;13.32;7.40;;;10.50;99.90;;;;;;5094272;28;20040;-66
2022/11/07 06:27:16;;;;;;;16.90;7.90;;;10.60;99.90;;;;;;5082123;28;20048;-66
2022/11/07 06:29:42;;;;;;;19.60;8.90;;;10.50;99.90;;;;;;5068597;28;20124;-65
2022/11/07 06:32:08;;;;;;;20.08;9.85;;;10.50;99.90;;;;;;5093557;28;20055;-66
2022/11/07 06:34:34;;;;;;;20.77;10.35;;;10.50;99.90;;;;;;5075982;28;20032;-63
2022/11/07 06:36:59;;;;;;;24.27;11.40;;;10.50;99.90;;;;;;5076015;28;20044;-66
2022/11/07 06:39:25;;;;;;;22.15;9.55;;;10.50;99.90;;;;;;5057876;28;20056;-65
2022/11/07 06:41:51;;;;;;;21.55;10.15;;;10.50;99.90;;;;;;5087840;28;20058;-65
2022/11/07 06:44:17;;;;;;;17.23;8.70;;;10.50;99.90;;;;;;5071884;28;20051;-65
2022/11/07 06:46:46;;;;;;;23.27;10.13;;;10.50;99.90;;;;;;5074486;28;20581;-65
2022/11/07 06:49:15;;;;;;;17.77;9.32;;;10.50;99.90;;;;;;5095203;28;20104;-66
2022/11/07 06:51:41;;;;;;;14.25;7.45;;;10.50;99.90;;;;;;5064671;28;20047;-62
2022/11/07 06:54:07;;;;;;;16.08;7.68;;;10.50;99.90;;;;;;5094772;27;20036;-66
2022/11/07 06:56:33;;;;;;;20.70;8.57;;;10.60;99.90;;;;;;5098138;28;20038;-65
2022/11/07 06:58:59;;;;;;;19.02;7.18;;;10.60;99.90;;;;;;5086548;28;20455;-65
2022/11/07 07:01:25;;;;;;;19.17;6.45;;;10.60;99.90;;;;;;5078470;28;20048;-65
2022/11/07 07:03:50;;;;;;;16.58;6.00;;;10.60;99.90;;;;;;5073520;28;20044;-64
2022/11/07 07:06:16;;;;;;;10.90;4.38;;;10.50;99.90;;;;;;5059394;28;20914;-63
2022/11/07 07:08:44;;;;;;;14.02;4.75;;;10.60;99.90;;;;;;5071119;28;20135;-61
2022/11/07 07:11:11;;;;;;;8.85;4.68;;;10.60;99.90;;;;;;5073194;28;20036;-61
2022/11/07 07:13:37;;;;;;;15.05;5.63;;;10.60;99.90;;;;;;5080229;28;20040;-61
2022/11/07 07:16:04;;;;;;;18.40;6.88;;;10.60;99.90;;;;;;5079494;28;20063;-61
2022/11/07 07:18:30;;;;;;;23.65;7.93;;;10.60;99.90;;;;;;5080867;28;20052;-61
2022/11/07 07:21:11;;;;;;;17.38;7.85;;;10.60;99.90;;;;;;5078815;28;20898;-61
2022/11/07 07:23:38;;;;;;;23.80;8.82;;;10.60;99.90;;;;;;5077359;28;20071;-61
2022/11/07 07:26:05;;;;;;;19.45;5.90;;;10.60;99.90;;;;;;5074622;28;20104;-61
2022/11/07 07:28:31;;;;;;;19.45;7.68;;;10.60;99.90;;;;;;5074229;28;20515;-60
2022/11/07 07:31:12;;;;;;;18.83;7.90;;;10.60;99.90;;;;;;5078562;28;20048;-61
2022/11/07 07:33:42;;;;;;;13.77;6.30;;;10.70;99.90;;;;;;5078647;28;20056;-61
2022/11/07 07:36:08;;;;;;;20.92;7.10;;;10.70;99.90;;;;;;5076212;28;20478;-61
2022/11/07 07:38:34;;;;;;;26.95;11.52;;;10.70;99.90;;;;;;5077360;28;20039;-61
2022/11/07 07:41:00;;;;;;;21.88;9.65;;;10.70;99.90;;;;;;5076514;28;20369;-61
2022/11/07 07:43:27;;;;;;;23.77;11.55;;;10.70;99.90;;;;;;5075763;28;20044;-61
2022/11/07 07:45:57;;;;;;;26.10;11.77;;;10.80;99.90;;;;;;5086151;28;20062;-61
2022/11/07 07:48:22;;;;;;;20.40;9.55;;;10.70;99.90;;;;;;5086548;28;20095;-61
2022/11/07 07:50:48;;;;;;;18.63;9.20;;;10.70;99.90;;;;;;5077995;28;20052;-61
2022/11/07 07:53:15;;;;;;;18.58;9.30;;;10.70;99.90;;;;;;5075845;28;20140;-61
2022/11/07 07:55:41;;;;;;;24.38;9.57;;;10.80;99.90;;;;;;5077576;28;20412;-61
2022/11/07 07:58:06;;;;;;;19.92;8.82;;;10.80;99.90;;;;;;5077847;28;20040;-61
2022/11/07 08:00:33;;;;;;;25.52;9.20;;;10.80;99.90;;;;;;5076626;28;20040;-61
2022/11/07 08:03:03;;;;;;;14.93;8.10;;;10.80;99.90;;;;;;5052447;28;20044;-60
2022/11/07 08:05:29;;;;;;;17.75;8.23;;;10.90;99.90;;;;;;5097308;28;20052;-61
2022/11/07 08:07:55;;;;;;;18.55;8.15;;;10.90;99.90;;;;;;5097277;28;20044;-61
2022/11/07 08:10:22;;;;;;;18.70;8.10;;;10.90;99.90;;;;;;5096189;28;20101;-61
2022/11/07 08:12:49;;;;;;;16.20;8.18;;;10.90;99.90;;;;;;5096709;28;20036;-61
2022/11/07 08:15:17;;;;;;;17.10;8.00;;;10.90;99.90;;;;;;5097468;28;20044;-61
2022/11/07 08:17:43;;;;;;;18.52;7.88;;;10.90;99.90;;;;;;5098072;28;20039;-62
2022/11/07 08:20:11;;;;;;;21.63;7.97;;;10.90;99.90;;;;;;5096448;28;20105;-61
2022/11/07 08:22:37;;;;;;;20.27;8.75;;;10.90;99.90;;;;;;5097401;28;20098;-61
2022/11/07 08:25:06;;;;;;;19.42;8.80;;;10.90;99.90;;;;;;5097827;28;20346;-62
2022/11/07 08:27:32;;;;;;;18.30;8.07;;;11.00;99.90;;;;;;5082641;28;20125;-61
2022/11/07 08:29:58;;;;;;;22.65;9.90;;;11.00;99.90;;;;;;5097287;28;20486;-59
2022/11/07 08:32:27;;;;;;;22.33;9.35;;;11.00;99.90;;;;;;5096713;28;20069;-61
2022/11/07 08:34:53;;;;;;;19.60;9.07;;;11.00;99.90;;;;;;5076888;28;20135;-61
2022/11/07 08:37:19;;;;;;;24.50;10.13;;;11.00;99.90;;;;;;5096033;28;20119;-60
2022/11/07 08:39:45;;;;;;;23.70;10.68;;;11.00;99.90;;;;;;5095672;28;20115;-61
2022/11/07 08:42:11;;;;;;;32.53;10.55;;;11.10;99.90;;;;;;5095019;28;20124;-61
2022/11/07 08:44:36;;;;;;;27.80;10.18;;;11.10;99.90;;;;;;5079486;28;20406;-61
2022/11/07 08:47:03;;;;;;;24.27;10.88;;;11.10;99.90;;;;;;5096686;28;20475;-61
2022/11/07 08:49:29;;;;;;;31.65;12.10;;;11.10;99.90;;;;;;5095429;28;20066;-61
2022/11/07 08:51:55;;;;;;;28.83;13.25;;;11.10;99.90;;;;;;5095447;28;20052;-61
2022/11/07 08:54:21;;;;;;;29.85;14.18;;;11.10;99.90;;;;;;5094576;28;20051;-61
2022/11/07 08:56:47;;;;;;;27.15;13.57;;;11.10;99.90;;;;;;5094329;28;20071;-61
2022/11/07 08:59:13;;;;;;;26.42;10.23;;;11.10;99.90;;;;;;5096021;28;20068;-61
2022/11/07 09:01:39;;;;;;;24.88;10.50;;;11.20;99.90;;;;;;5095983;28;20140;-61
2022/11/07 09:04:05;;;;;;;30.42;11.75;;;11.20;99.90;;;;;;5093668;28;20122;-61
2022/11/07 09:06:34;;;;;;;27.75;11.85;;;11.30;99.90;;;;;;5095435;28;20058;-61
2022/11/07 09:09:00;;;;;;;35.15;11.57;;;11.30;99.90;;;;;;5093722;28;20640;-61
2022/11/07 09:11:26;;;;;;;22.55;10.25;;;11.30;99.90;;;;;;5093160;28;20051;-61
2022/11/07 09:13:53;;;;;;;31.42;11.23;;;11.30;99.90;;;;;;5094409;28;20048;-61
2022/11/07 09:16:20;;;;;;;27.83;9.70;;;11.40;99.90;;;;;;5094679;28;20047;-61
2022/11/07 09:18:47;;;;;;;28.50;10.40;;;11.40;99.90;;;;;;5059670;28;20088;-61
2022/11/07 09:21:13;;;;;;;24.50;9.48;;;11.40;99.90;;;;;;5094394;28;20044;-61
2022/11/07 09:23:39;;;;;;;20.90;9.75;;;11.50;99.90;;;;;;5096436;28;20046;-61
2022/11/07 09:26:06;;;;;;;21.67;8.00;;;11.50;99.90;;;;;;5095969;28;20094;-61
2022/11/07 09:28:32;;;;;;;24.00;9.30;;;11.50;99.90;;;;;;5094506;28;20071;-61
2022/11/07 09:31:02;;;;;;;29.45;8.95;;;11.50;99.90;;;;;;5094440;28;20048;-61
2022/11/07 09:33:28;;;;;;;23.80;8.40;;;11.60;99.90;;;;;;5096076;28;20097;-61
2022/11/07 09:35:57;;;;;;;17.75;7.32;;;11.60;99.90;;;;;;5094737;28;20089;-61
2022/11/07 09:38:23;;;;;;;19.13;7.72;;;11.60;99.90;;;;;;5095961;28;20105;-61
2022/11/07 09:40:53;;;;;;;22.27;7.55;;;11.60;99.90;;;;;;5095662;28;20040;-61
2022/11/07 09:44:03;;;;;;;20.70;6.55;;;11.70;99.90;;;;;;5087224;28;20047;-61
2022/11/07 09:46:41;;;;;;;20.38;7.95;;;11.80;99.90;;;;;;5069820;28;20048;-61
2022/11/07 09:49:18;;;;;;;28.60;8.15;;;11.80;99.90;;;;;;5096130;28;20121;-60
2022/11/07 09:51:53;;;;;;;17.40;8.30;;;11.80;99.90;;;;;;5078192;28;20486;-61
2022/11/07 09:54:26;;;;;;;18.38;6.93;;;11.80;99.90;;;;;;5086411;28;20039;-61
2022/11/07 09:56:55;;;;;;;20.73;7.85;;;11.90;99.90;;;;;;5095574;28;20047;-61
2022/11/07 09:59:39;;;;;;;17.65;5.70;;;11.90;99.90;;;;;;5094403;28;20052;-61
2022/11/07 10:02:16;;;;;;;18.77;6.00;;;11.90;99.90;;;;;;5075694;28;20052;-61
2022/11/07 10:04:43;;;;;;;21.10;6.60;;;11.90;99.90;;;;;;5094149;28;20241;-61
2022/11/07 10:07:12;;;;;;;16.55;5.95;;;11.90;99.90;;;;;;5080215;28;20055;-61
2022/11/07 10:09:38;;;;;;;21.90;6.82;;;11.90;99.90;;;;;;5095729;28;20032;-61
2022/11/07 10:12:12;;;;;;;18.08;5.90;;;11.90;99.90;;;;;;5095522;28;20051;-60
2022/11/07 10:14:38;;;;;;;25.48;7.90;;;11.90;99.90;;;;;;5096011;28;20047;-61
2022/11/07 10:17:18;;;;;;;24.98;6.75;;;12.00;99.90;;;;;;5093789;28;20047;-61
2022/11/07 10:19:49;;;;;;;18.52;6.22;;;12.00;99.90;;;;;;5075568;28;20492;-61
2022/11/07 10:22:15;;;;;;;21.10;6.22;;;12.00;99.90;;;;;;5092051;28;20047;-61
2022/11/07 10:24:49;;;;;;;26.15;6.97;;;12.10;99.90;;;;;;5094765;28;20135;-61
2022/11/07 10:27:15;;;;;;;20.90;5.70;;;12.10;99.90;;;;;;5077393;28;20053;-61
2022/11/07 10:29:47;;;;;;;25.35;6.03;;;12.10;99.90;;;;;;5080577;28;20410;-61
2022/11/07 10:32:34;;;;;;;16.65;6.63;;;12.20;99.90;;;;;;5090940;28;20048;-61
2022/11/07 10:35:23;;;;;;;13.75;5.57;;;12.20;99.90;;;;;;5094827;28;20097;-60
2022/11/07 10:38:23;;;;;;;20.92;6.03;;;12.20;99.90;;;;;;5077606;28;20048;-61
2022/11/07 10:40:51;;;;;;;21.02;5.40;;;12.30;99.90;;;;;;5093949;28;20149;-61
2022/11/07 10:43:28;;;;;;;19.50;5.43;;;12.30;99.90;;;;;;5096460;28;20051;-61
2022/11/07 10:45:55;;;;;;;15.02;5.53;;;12.30;99.90;;;;;;5096610;28;20502;-61
2022/11/07 10:48:21;;;;;;;23.50;5.75;;;12.40;99.90;;;;;;5097708;28;20042;-61
2022/11/07 10:50:52;;;;;;;13.57;5.07;;;12.40;99.90;;;;;;5077974;28;20123;-61
2022/11/07 10:53:19;;;;;;;19.02;5.15;;;12.40;99.90;;;;;;5098058;28;20047;-61
2022/11/07 10:55:47;;;;;;;17.33;5.25;;;12.40;99.90;;;;;;5096421;28;20405;-61
2022/11/07 10:58:27;;;;;;;16.95;5.45;;;12.50;99.90;;;;;;5077576;28;20043;-62
2022/11/07 11:01:04;;;;;;;17.60;5.63;;;12.50;99.90;;;;;;5070052;28;20410;-61
2022/11/07 11:03:42;;;;;;;18.50;4.85;;;12.50;99.90;;;;;;5095353;28;20055;-62
2022/11/07 11:06:18;;;;;;;16.05;4.93;;;12.50;99.90;;;;;;5085917;28;20368;-61
2022/11/07 11:08:49;;;;;;;18.52;5.30;;;12.50;99.90;;;;;;5094569;28;20513;-61
2022/11/07 11:11:19;;;;;;;15.75;4.50;;;12.50;99.90;;;;;;5094571;28;20069;-61
2022/11/07 11:13:46;;;;;;;15.98;4.53;;;12.50;99.90;;;;;;5095299;28;20059;-61
2022/11/07 11:16:29;;;;;;;20.30;4.85;;;12.50;99.90;;;;;;5079142;28;20079;-61
2022/11/07 11:18:58;;;;;;;17.55;4.82;;;12.40;99.90;;;;;;5077740;28;20452;-61
2022/11/07 11:21:24;;;;;;;18.48;4.97;;;12.50;99.90;;;;;;5094485;28;20151;-61
2022/11/07 11:23:52;;;;;;;13.82;4.40;;;12.50;99.90;;;;;;5096398;28;20062;-61
2022/11/07 11:26:27;;;;;;;16.55;4.82;;;12.50;99.90;;;;;;5095286;28;20519;-62
2022/11/07 11:29:21;;;;;;;22.50;5.15;;;12.50;99.90;;;;;;5095876;28;20623;-62
2022/11/07 11:31:53;;;;;;;13.82;4.82;;;12.50;99.90;;;;;;5094665;28;20048;-62
2022/11/07 11:35:17;;;;;;;19.48;5.38;;;12.60;99.90;;;;;;5082996;28;20051;-62
2022/11/07 11:37:49;;;;;;;21.17;5.40;;;12.60;99.90;;;;;;5053707;28;20128;-60
2022/11/07 11:40:21;;;;;;;11.52;4.63;;;12.60;99.90;;;;;;5099099;28;20054;-61
2022/11/07 11:43:24;;;;;;;19.05;5.43;;;12.60;99.90;;;;;;5099179;28;20188;-61
2022/11/07 11:46:08;;;;;;;23.80;5.45;;;12.60;99.90;;;;;;5038327;28;20045;-61
2022/11/07 11:48:45;;;;;;;21.25;5.18;;;12.60;99.90;;;;;;5095452;28;20044;-62
2022/11/07 11:51:23;;;;;;;16.70;5.38;;;12.70;99.90;;;;;;5099481;28;20390;-61
2022/11/07 11:53:49;;;;;;;19.92;5.70;;;12.70;99.90;;;;;;5083844;28;20436;-61
2022/11/07 11:56:34;;;;;;;16.40;5.32;;;12.80;99.90;;;;;;5100071;28;20040;-62
2022/11/07 11:59:32;;;;;;;23.48;5.88;;;12.80;99.90;;;;;;5098883;28;20040;-61
2022/11/07 12:02:26;;;;;;;15.73;4.97;;;12.90;99.90;;;;;;5064821;28;20051;-62
2022/11/07 12:04:59;;;;;;;14.57;5.25;;;13.00;99.90;;;;;;5099823;28;20040;-61
2022/11/07 12:07:49;;;;;;;10.77;4.53;;;13.00;99.90;;;;;;5099606;28;20047;-61
2022/11/07 12:10:31;;;;;;;15.45;5.07;;;13.10;99.90;;;;;;5099455;28;20047;-61
2022/11/07 12:13:34;;;;;;;23.27;5.30;;;13.20;99.90;;;;;;5097451;28;20052;-62
2022/11/07 12:15:59;;;;;;;19.98;5.70;;;13.30;99.90;;;;;;5099650;28;20046;-60
2022/11/07 12:18:43;;;;;;;20.42;5.50;;;13.40;99.90;;;;;;5080424;28;20044;-60
2022/11/07 12:21:33;;;;;;;18.27;5.20;;;13.50;99.90;;;;;;5099317;28;20098;-61
2022/11/07 12:24:22;;;;;;;19.13;5.60;;;13.50;99.90;;;;;;5098636;28;20048;-61
2022/11/07 12:27:08;;;;;;;14.80;5.00;;;13.50;99.90;;;;;;5098423;28;20031;-62
2022/11/07 12:30:00;;;;;;;14.13;4.40;;;13.50;99.90;;;;;;5082461;28;20494;-61
2022/11/07 12:32:41;;;;;;;11.77;4.90;;;13.60;99.90;;;;;;5086550;28;20040;-61
2022/11/07 12:35:35;;;;;;;12.68;4.93;;;13.70;99.90;;;;;;5097479;28;20044;-62
2022/11/07 12:38:19;;;;;;;16.85;4.50;;;13.80;99.90;;;;;;5068441;28;20039;-62
2022/11/07 12:41:07;;;;;;;15.32;4.75;;;13.90;99.90;;;;;;5080147;28;20499;-62
2022/11/07 12:43:32;;;;;;;12.70;4.45;;;14.00;99.90;;;;;;5097118;28;20055;-61
2022/11/07 12:46:10;;;;;;;14.38;4.25;;;14.10;99.90;;;;;;5098547;28;20490;-61
2022/11/07 12:48:44;;;;;;;10.90;4.65;;;14.10;99.90;;;;;;5098395;28;20134;-61
2022/11/07 12:51:19;;;;;;;10.90;3.92;;;14.20;99.90;;;;;;5096684;28;20144;-61
2022/11/07 12:54:22;;;;;;;14.93;4.07;;;14.20;99.90;;;;;;5095923;28;20040;-62
2022/11/07 12:56:49;;;;;;;9.05;3.85;;;14.30;99.90;;;;;;5073968;28;20055;-61
2022/11/07 12:59:26;;;;;;;14.10;4.05;;;14.30;99.90;;;;;;5097165;28;20062;-62
2022/11/07 13:02:07;;;;;;;13.38;3.63;;;14.30;99.90;;;;;;5079763;28;20074;-61